Hoyu — 3EYR2 — position and weather

sailwx.info

Track history (hours):
 
Tides and Currents Weather Stations Pressure Air Temp Water Temp Dewpoint Dewpoint Depression Visibility Wind Speed Wind Dir Waves Ship Positions

Hoyu

Last reported at 2018-Apr-18 11:33 UTC. Time now 2018-Apr-26 03:28 UTC.
Position N 34°22' E 138°20'.

Length 114 m; draft 5.2 m.

Type: Ship. MMSI: 370419000.

Date/timePositionNaut miles runAvg speedWind from/ knotsBaromVisibWave heightAir tempDewpointWater temp
2018-Apr-18 11:33N 34°22' E 138°20'613.1
2018-Apr-18 11:04N 34°23' E 138°27'212.6
2018-Apr-18 10:54N 34°24' E 138°30'512.8
2018-Apr-18 10:30N 34°25' E 138°36'713.0
2018-Apr-18 09:59N 34°27' E 138°43'813.6
2018-Apr-18 09:25N 34°30' E 138°52'613.9
2018-Apr-18 09:00N 34°31' E 138°59'713.6
2018-Apr-18 08:28N 34°33' E 139°07'613.6
2018-Apr-18 08:00N 34°35' E 139°15'812.9
2018-Apr-18 07:24N 34°38' E 139°24'512.9
2018-Apr-18 07:00N 34°39' E 139°30'813.8
2018-Apr-18 06:25N 34°43' E 139°38'613.7
2018-Apr-18 06:00N 34°46' E 139°44'1612.8
2018-Apr-18 04:48N 34°52' E 140°01'412.4
2018-Apr-18 04:30N 34°54' E 140°05'9 0.2
2018-Apr-16 12:55N 34°58' E 140°15'613.5
2018-Apr-16 12:30N 34°55' E 140°08'1713.4
2018-Apr-16 11:14N 34°50' E 139°49'312.4
2018-Apr-16 11:00N 34°50' E 139°45'713.0
2018-Apr-16 10:27N 34°57' E 139°44'613.0
2018-Apr-16 10:00N 35°03' E 139°43'713.0
2018-Apr-16 09:30N 35°09' E 139°45'613.0
2018-Apr-16 09:00N 35°16' E 139°46'612.9
2018-Apr-16 08:31N 35°21' E 139°42'612.1
2018-Apr-16 08:00N 35°27' E 139°46'2 4.3
2018-Apr-16 07:30N 35°29' E 139°46'0 0.2
2018-Apr-16 07:01N 35°29' E 139°46'0 0.3
2018-Apr-16 06:31N 35°29' E 139°47'2 3.7
2018-Apr-16 06:00N 35°31' E 139°46'0 0.5
2018-Apr-16 05:20N 35°31' E 139°46'0 0.0
2018-Apr-16 04:53N 35°31' E 139°46'0 0.0
2018-Apr-16 04:29N 35°31' E 139°46'0 0.0
2018-Apr-16 02:32N 35°31' E 139°46'0 0.0
2018-Apr-16 02:23N 35°31' E 139°46'0 0.0
2018-Apr-16 01:53N 35°31' E 139°46'0 0.0
2018-Apr-16 00:08N 35°31' E 139°46'0 0.0
2018-Apr-16 00:00N 35°31' E 139°46'0 0.0
2018-Apr-15 23:30N 35°31' E 139°46'0 0.1
2018-Apr-15 23:00N 35°31' E 139°46'2 4.7
2018-Apr-15 22:30N 35°30' E 139°44'3 5.7
2018-Apr-15 22:00N 35°27' E 139°43'0 0.2
2018-Apr-15 21:30N 35°27' E 139°43'0 0.1
2018-Apr-15 21:00N 35°27' E 139°43'0 0.0
2018-Apr-15 20:30N 35°27' E 139°43'0 0.0
2018-Apr-15 19:57N 35°27' E 139°43'0 0.0
2018-Apr-15 19:30N 35°27' E 139°43'0 0.0
2018-Apr-15 19:00N 35°27' E 139°43'0 0.0
2018-Apr-15 18:30N 35°27' E 139°43'0 0.0
2018-Apr-15 17:57N 35°27' E 139°43'0 0.0
2018-Apr-15 17:30N 35°27' E 139°43'0 0.0
2018-Apr-15 17:00N 35°27' E 139°43'0 0.0
2018-Apr-15 16:30N 35°27' E 139°43'0 0.0
2018-Apr-15 16:00N 35°27' E 139°43'0 0.0
2018-Apr-15 15:30N 35°27' E 139°43'0 0.0
2018-Apr-15 15:00N 35°27' E 139°43'0 0.0
2018-Apr-15 14:27N 35°27' E 139°43'0 0.0
2018-Apr-15 14:00N 35°27' E 139°43'0 0.0
2018-Apr-15 13:30N 35°27' E 139°43'0 0.0
2018-Apr-15 13:00N 35°27' E 139°43'0 0.0
2018-Apr-15 12:30N 35°27' E 139°43'0 0.0
2018-Apr-15 11:57N 35°27' E 139°43'0 0.1
2018-Apr-15 11:30N 35°27' E 139°43'2 4.4
2018-Apr-15 11:01N 35°25' E 139°44'4 8.7
2018-Apr-15 10:30N 35°21' E 139°43'612.0
2018-Apr-15 10:00N 35°16' E 139°47'612.6
2018-Apr-15 09:30N 35°09' E 139°47'612.9
2018-Apr-15 09:00N 35°03' E 139°44'713.6
2018-Apr-15 08:30N 34°58' E 139°38'714.0
2018-Apr-15 08:01N 34°54' E 139°31'714.1
2018-Apr-15 07:29N 34°51' E 139°23'713.8
2018-Apr-15 06:59N 34°47' E 139°16'1013.4
2018-Apr-15 06:17N 34°39' E 139°09'312.8
2018-Apr-15 06:00N 34°37' E 139°06'713.2
2018-Apr-15 05:29N 34°32' E 139°01'613.3
2018-Apr-15 05:00N 34°30' E 138°53'1113.4
2018-Apr-15 04:11N 34°27' E 138°41'313.4
2018-Apr-15 03:56N 34°26' E 138°37'613.4
2018-Apr-15 03:29N 34°24' E 138°30'613.3
2018-Apr-15 03:00N 34°23' E 138°22'16710.8
2018-Apr-14 11:35N 33°47' E 135°05'411.7
2018-Apr-14 11:16N 33°50' E 135°02'311.4
2018-Apr-14 11:00N 33°52' E 135°00'611.1
2018-Apr-14 10:30N 33°58' E 135°01'611.3
2018-Apr-14 10:00N 34°03' E 135°02'611.4
2018-Apr-14 09:30N 34°09' E 135°04'510.7
2018-Apr-14 09:00N 34°13' E 135°07'1 2.1
2018-Apr-14 08:28N 34°13' E 135°09'0 0.0
2018-Apr-14 07:58N 34°13' E 135°09'0 0.0
2018-Apr-14 07:28N 34°13' E 135°09'0 0.0
2018-Apr-14 06:58N 34°13' E 135°09'0 0.0
2018-Apr-14 06:28N 34°13' E 135°09'0 0.0
2018-Apr-14 05:49N 34°13' E 135°09'0 0.0
2018-Apr-14 05:28N 34°13' E 135°09'0 0.0
2018-Apr-14 04:58N 34°13' E 135°09'0 0.0
2018-Apr-14 04:25N 34°13' E 135°09'0 0.0
2018-Apr-14 03:58N 34°13' E 135°09'0 0.0
2018-Apr-14 03:28N 34°13' E 135°09'0 0.0
2018-Apr-14 02:58N 34°13' E 135°09'0 0.0
2018-Apr-14 02:28N 34°13' E 135°09'0 0.0
2018-Apr-14 01:58N 34°13' E 135°09'0 0.0
2018-Apr-14 01:28N 34°13' E 135°09'0 0.0
2018-Apr-14 00:58N 34°13' E 135°09'0 0.0
2018-Apr-14 00:28N 34°13' E 135°09'0 0.0
2018-Apr-13 23:58N 34°13' E 135°09'0 0.0
2018-Apr-13 23:28N 34°13' E 135°09'0 0.0
2018-Apr-13 22:58N 34°13' E 135°09'0 0.0
2018-Apr-13 22:28N 34°13' E 135°09'0 0.0
2018-Apr-13 22:00N 34°13' E 135°09'1 1.5
2018-Apr-13 21:30N 34°13' E 135°08'1 1.6
2018-Apr-13 21:00N 34°13' E 135°07'1 1.0
2018-Apr-13 20:29N 34°12' E 135°07'0 0.1
2018-Apr-13 19:59N 34°12' E 135°07'0 0.0
2018-Apr-13 19:29N 34°12' E 135°07'0 0.0
2018-Apr-13 18:59N 34°12' E 135°07'0 0.0
2018-Apr-13 18:29N 34°12' E 135°07'0 0.1
2018-Apr-13 17:59N 34°12' E 135°07'0 0.1
2018-Apr-13 17:29N 34°12' E 135°07'0 0.1
2018-Apr-13 16:59N 34°12' E 135°07'0 0.1
2018-Apr-13 16:29N 34°12' E 135°07'0 0.0
2018-Apr-13 15:59N 34°12' E 135°07'0 0.0
2018-Apr-13 15:29N 34°12' E 135°07'0 0.1
2018-Apr-13 14:59N 34°12' E 135°07'0 0.2
2018-Apr-13 14:30N 34°12' E 135°07'2 3.4
2018-Apr-13 14:00N 34°12' E 135°05'1010.3
2018-Apr-13 13:00N 34°22' E 135°00'713.5
2018-Apr-13 12:30N 34°26' E 135°07'713.6
2018-Apr-13 12:00N 34°29' E 135°14'5 9.4
2018-Apr-13 11:30N 34°26' E 135°19'0 0.8
2018-Apr-13 11:00N 34°26' E 135°19'0 0.0
2018-Apr-13 10:30N 34°26' E 135°19'0 0.0
2018-Apr-13 10:00N 34°26' E 135°19'0 0.0
2018-Apr-13 09:30N 34°26' E 135°19'0 0.0
2018-Apr-13 09:00N 34°26' E 135°19'0 0.0
2018-Apr-13 08:30N 34°26' E 135°19'0 0.0
2018-Apr-13 08:00N 34°26' E 135°19'0 0.0
2018-Apr-13 07:30N 34°26' E 135°19'0 0.0
2018-Apr-13 07:00N 34°26' E 135°19'1 1.8
2018-Apr-13 06:31N 34°27' E 135°19'0 0.8
2018-Apr-13 05:59N 34°27' E 135°19'0 0.0
2018-Apr-13 05:29N 34°27' E 135°19'0 0.0
2018-Apr-13 04:59N 34°27' E 135°19'0 0.0
2018-Apr-13 04:29N 34°27' E 135°19'0 0.0
2018-Apr-13 03:59N 34°27' E 135°19'0 0.0
2018-Apr-13 03:29N 34°27' E 135°19'0 0.0
2018-Apr-13 02:56N 34°27' E 135°19'0 0.0
2018-Apr-13 02:29N 34°27' E 135°19'0 0.0
2018-Apr-13 01:59N 34°27' E 135°19'0 0.0
2018-Apr-13 01:29N 34°27' E 135°19'0 0.0
2018-Apr-13 00:56N 34°27' E 135°19'0 0.0
2018-Apr-13 00:29N 34°27' E 135°19'0 0.0
2018-Apr-12 23:59N 34°27' E 135°19'0 0.0
2018-Apr-12 23:29N 34°27' E 135°19'0 0.0
2018-Apr-12 22:53N 34°27' E 135°19'0 0.0
2018-Apr-12 22:29N 34°27' E 135°19'0 0.0
2018-Apr-12 21:59N 34°27' E 135°19'0 0.0
2018-Apr-12 21:29N 34°27' E 135°19'0 0.0
2018-Apr-12 20:59N 34°27' E 135°19'0 0.0
2018-Apr-12 20:29N 34°27' E 135°19'0 0.1
2018-Apr-12 19:59N 34°27' E 135°19'0 0.0
2018-Apr-12 19:29N 34°27' E 135°19'0 0.1
2018-Apr-12 18:56N 34°27' E 135°19'0 0.1
2018-Apr-12 18:29N 34°27' E 135°19'0 0.0
2018-Apr-12 17:59N 34°27' E 135°19'0 0.0
2018-Apr-12 17:26N 34°27' E 135°19'0 0.0
2018-Apr-12 16:59N 34°27' E 135°19'0 0.0
2018-Apr-12 16:29N 34°27' E 135°19'0 0.2
2018-Apr-12 16:00N 34°27' E 135°19'2 4.6
2018-Apr-12 15:30N 34°29' E 135°18'612.7
2018-Apr-12 15:00N 34°35' E 135°18'4 8.4
2018-Apr-12 14:30N 34°40' E 135°18'0 0.0
2018-Apr-12 13:59N 34°40' E 135°18'0 0.0
2018-Apr-12 13:29N 34°40' E 135°18'0 0.1
2018-Apr-12 12:59N 34°40' E 135°18'0 0.0
2018-Apr-12 12:29N 34°40' E 135°18'0 0.0
2018-Apr-12 11:59N 34°40' E 135°18'0 0.0
2018-Apr-12 11:29N 34°40' E 135°18'0 0.1
2018-Apr-12 11:00N 34°40' E 135°18'3 6.5
2018-Apr-12 10:30N 34°36' E 135°18'612.3
2018-Apr-12 10:00N 34°31' E 135°13'713.1
2018-Apr-12 09:30N 34°27' E 135°08'713.4
2018-Apr-12 09:00N 34°22' E 135°02'612.9
2018-Apr-12 08:31N 34°16' E 134°59'612.5
2018-Apr-12 08:00N 34°10' E 134°59'612.6
2018-Apr-12 07:30N 34°04' E 134°57'613.0
2018-Apr-12 07:01N 33°57' E 134°56'15110.2
2018-Apr-11 16:14N 33°11' E 132°03'413.0
2018-Apr-11 15:57N 33°15' E 132°01'613.6
2018-Apr-11 15:30N 33°20' E 131°58'713.6
2018-Apr-11 14:59N 33°26' E 131°54'713.9
2018-Apr-11 14:30N 33°32' E 131°50'714.1
2018-Apr-11 13:59N 33°39' E 131°46'713.8
2018-Apr-11 13:28N 33°45' E 131°43'1213.4
2018-Apr-11 12:36N 33°48' E 131°29'213.4
2018-Apr-11 12:26N 33°48' E 131°26'613.2
2018-Apr-11 12:01N 33°50' E 131°20'713.2
2018-Apr-11 11:30N 33°51' E 131°12'713.3
2018-Apr-11 11:00N 33°55' E 131°06'611.9
2018-Apr-11 10:31N 33°58' E 130°60'5 9.6
2018-Apr-11 10:00N 33°55' E 130°56'4 7.6
2018-Apr-11 09:30N 33°57' E 130°52'510.1
2018-Apr-11 09:00N 34°01' E 130°50'713.2
2018-Apr-11 08:31N 34°06' E 130°44'713.4
2018-Apr-11 08:00N 34°11' E 130°39'713.2
2018-Apr-11 07:30N 34°16' E 130°33'713.2
2018-Apr-11 07:00N 34°21' E 130°28'713.1
2018-Apr-11 06:30N 34°26' E 130°23'2613.1
2018-Apr-11 04:30N 34°45' E 130°01'  
Track history (hours):
 
Tides and Currents Weather Stations Pressure Air Temp Water Temp Dewpoint Dewpoint Depression Visibility Wind Speed Wind Dir Waves Ship Positions

Hoyu

Last reported at 2018-Apr-18 11:33 UTC. Time now 2018-Apr-26 03:28 UTC.
Position N 34°22' E 138°20'.

Length 114 m; draft 5.2 m.

Type: Ship. MMSI: 370419000.

Date/timePositionNaut miles runAvg speedWind from/ knotsBaromVisibWave heightAir tempDewpointWater temp
2018-Apr-18 11:33N 34°22' E 138°20'613.1
2018-Apr-18 11:04N 34°23' E 138°27'212.6
2018-Apr-18 10:54N 34°24' E 138°30'512.8
2018-Apr-18 10:30N 34°25' E 138°36'713.0
2018-Apr-18 09:59N 34°27' E 138°43'813.6
2018-Apr-18 09:25N 34°30' E 138°52'613.9
2018-Apr-18 09:00N 34°31' E 138°59'713.6
2018-Apr-18 08:28N 34°33' E 139°07'613.6
2018-Apr-18 08:00N 34°35' E 139°15'812.9
2018-Apr-18 07:24N 34°38' E 139°24'512.9
2018-Apr-18 07:00N 34°39' E 139°30'813.8
2018-Apr-18 06:25N 34°43' E 139°38'613.7
2018-Apr-18 06:00N 34°46' E 139°44'1612.8
2018-Apr-18 04:48N 34°52' E 140°01'412.4
2018-Apr-18 04:30N 34°54' E 140°05'9 0.2
2018-Apr-16 12:55N 34°58' E 140°15'613.5
2018-Apr-16 12:30N 34°55' E 140°08'1713.4
2018-Apr-16 11:14N 34°50' E 139°49'312.4
2018-Apr-16 11:00N 34°50' E 139°45'713.0
2018-Apr-16 10:27N 34°57' E 139°44'613.0
2018-Apr-16 10:00N 35°03' E 139°43'713.0
2018-Apr-16 09:30N 35°09' E 139°45'613.0
2018-Apr-16 09:00N 35°16' E 139°46'612.9
2018-Apr-16 08:31N 35°21' E 139°42'612.1
2018-Apr-16 08:00N 35°27' E 139°46'2 4.3
2018-Apr-16 07:30N 35°29' E 139°46'0 0.2
2018-Apr-16 07:01N 35°29' E 139°46'0 0.3
2018-Apr-16 06:31N 35°29' E 139°47'2 3.7
2018-Apr-16 06:00N 35°31' E 139°46'0 0.5
2018-Apr-16 05:20N 35°31' E 139°46'0 0.0
2018-Apr-16 04:53N 35°31' E 139°46'0 0.0
2018-Apr-16 04:29N 35°31' E 139°46'0 0.0
2018-Apr-16 02:32N 35°31' E 139°46'0 0.0
2018-Apr-16 02:23N 35°31' E 139°46'0 0.0
2018-Apr-16 01:53N 35°31' E 139°46'0 0.0
2018-Apr-16 00:08N 35°31' E 139°46'0 0.0
2018-Apr-16 00:00N 35°31' E 139°46'0 0.0
2018-Apr-15 23:30N 35°31' E 139°46'0 0.1
2018-Apr-15 23:00N 35°31' E 139°46'2 4.7
2018-Apr-15 22:30N 35°30' E 139°44'3 5.7
2018-Apr-15 22:00N 35°27' E 139°43'0 0.2
2018-Apr-15 21:30N 35°27' E 139°43'0 0.1
2018-Apr-15 21:00N 35°27' E 139°43'0 0.0
2018-Apr-15 20:30N 35°27' E 139°43'0 0.0
2018-Apr-15 19:57N 35°27' E 139°43'0 0.0
2018-Apr-15 19:30N 35°27' E 139°43'0 0.0
2018-Apr-15 19:00N 35°27' E 139°43'0 0.0
2018-Apr-15 18:30N 35°27' E 139°43'0 0.0
2018-Apr-15 17:57N 35°27' E 139°43'0 0.0
2018-Apr-15 17:30N 35°27' E 139°43'0 0.0
2018-Apr-15 17:00N 35°27' E 139°43'0 0.0
2018-Apr-15 16:30N 35°27' E 139°43'0 0.0
2018-Apr-15 16:00N 35°27' E 139°43'0 0.0
2018-Apr-15 15:30N 35°27' E 139°43'0 0.0
2018-Apr-15 15:00N 35°27' E 139°43'0 0.0
2018-Apr-15 14:27N 35°27' E 139°43'0 0.0
2018-Apr-15 14:00N 35°27' E 139°43'0 0.0
2018-Apr-15 13:30N 35°27' E 139°43'0 0.0
2018-Apr-15 13:00N 35°27' E 139°43'0 0.0
2018-Apr-15 12:30N 35°27' E 139°43'0 0.0
2018-Apr-15 11:57N 35°27' E 139°43'0 0.1
2018-Apr-15 11:30N 35°27' E 139°43'2 4.4
2018-Apr-15 11:01N 35°25' E 139°44'4 8.7
2018-Apr-15 10:30N 35°21' E 139°43'612.0
2018-Apr-15 10:00N 35°16' E 139°47'612.6
2018-Apr-15 09:30N 35°09' E 139°47'612.9
2018-Apr-15 09:00N 35°03' E 139°44'713.6
2018-Apr-15 08:30N 34°58' E 139°38'714.0
2018-Apr-15 08:01N 34°54' E 139°31'714.1
2018-Apr-15 07:29N 34°51' E 139°23'713.8
2018-Apr-15 06:59N 34°47' E 139°16'1013.4
2018-Apr-15 06:17N 34°39' E 139°09'312.8
2018-Apr-15 06:00N 34°37' E 139°06'713.2
2018-Apr-15 05:29N 34°32' E 139°01'613.3
2018-Apr-15 05:00N 34°30' E 138°53'1113.4
2018-Apr-15 04:11N 34°27' E 138°41'313.4
2018-Apr-15 03:56N 34°26' E 138°37'613.4
2018-Apr-15 03:29N 34°24' E 138°30'613.3
2018-Apr-15 03:00N 34°23' E 138°22'16710.8
2018-Apr-14 11:35N 33°47' E 135°05'411.7
2018-Apr-14 11:16N 33°50' E 135°02'311.4
2018-Apr-14 11:00N 33°52' E 135°00'611.1
2018-Apr-14 10:30N 33°58' E 135°01'611.3
2018-Apr-14 10:00N 34°03' E 135°02'611.4
2018-Apr-14 09:30N 34°09' E 135°04'510.7
2018-Apr-14 09:00N 34°13' E 135°07'1 2.1
2018-Apr-14 08:28N 34°13' E 135°09'0 0.0
2018-Apr-14 07:58N 34°13' E 135°09'0 0.0
2018-Apr-14 07:28N 34°13' E 135°09'0 0.0
2018-Apr-14 06:58N 34°13' E 135°09'0 0.0
2018-Apr-14 06:28N 34°13' E 135°09'0 0.0
2018-Apr-14 05:49N 34°13' E 135°09'0 0.0
2018-Apr-14 05:28N 34°13' E 135°09'0 0.0
2018-Apr-14 04:58N 34°13' E 135°09'0 0.0
2018-Apr-14 04:25N 34°13' E 135°09'0 0.0
2018-Apr-14 03:58N 34°13' E 135°09'0 0.0
2018-Apr-14 03:28N 34°13' E 135°09'0 0.0
2018-Apr-14 02:58N 34°13' E 135°09'0 0.0
2018-Apr-14 02:28N 34°13' E 135°09'0 0.0
2018-Apr-14 01:58N 34°13' E 135°09'0 0.0
2018-Apr-14 01:28N 34°13' E 135°09'0 0.0
2018-Apr-14 00:58N 34°13' E 135°09'0 0.0
2018-Apr-14 00:28N 34°13' E 135°09'0 0.0
2018-Apr-13 23:58N 34°13' E 135°09'0 0.0
2018-Apr-13 23:28N 34°13' E 135°09'0 0.0
2018-Apr-13 22:58N 34°13' E 135°09'0 0.0
2018-Apr-13 22:28N 34°13' E 135°09'0 0.0
2018-Apr-13 22:00N 34°13' E 135°09'1 1.5
2018-Apr-13 21:30N 34°13' E 135°08'1 1.6
2018-Apr-13 21:00N 34°13' E 135°07'1 1.0
2018-Apr-13 20:29N 34°12' E 135°07'0 0.1
2018-Apr-13 19:59N 34°12' E 135°07'0 0.0
2018-Apr-13 19:29N 34°12' E 135°07'0 0.0
2018-Apr-13 18:59N 34°12' E 135°07'0 0.0
2018-Apr-13 18:29N 34°12' E 135°07'0 0.1
2018-Apr-13 17:59N 34°12' E 135°07'0 0.1
2018-Apr-13 17:29N 34°12' E 135°07'0 0.1
2018-Apr-13 16:59N 34°12' E 135°07'0 0.1
2018-Apr-13 16:29N 34°12' E 135°07'0 0.0
2018-Apr-13 15:59N 34°12' E 135°07'0 0.0
2018-Apr-13 15:29N 34°12' E 135°07'0 0.1
2018-Apr-13 14:59N 34°12' E 135°07'0 0.2
2018-Apr-13 14:30N 34°12' E 135°07'2 3.4
2018-Apr-13 14:00N 34°12' E 135°05'1010.3
2018-Apr-13 13:00N 34°22' E 135°00'713.5
2018-Apr-13 12:30N 34°26' E 135°07'713.6
2018-Apr-13 12:00N 34°29' E 135°14'5 9.4
2018-Apr-13 11:30N 34°26' E 135°19'0 0.8
2018-Apr-13 11:00N 34°26' E 135°19'0 0.0
2018-Apr-13 10:30N 34°26' E 135°19'0 0.0
2018-Apr-13 10:00N 34°26' E 135°19'0 0.0
2018-Apr-13 09:30N 34°26' E 135°19'0 0.0
2018-Apr-13 09:00N 34°26' E 135°19'0 0.0
2018-Apr-13 08:30N 34°26' E 135°19'0 0.0
2018-Apr-13 08:00N 34°26' E 135°19'0 0.0
2018-Apr-13 07:30N 34°26' E 135°19'0 0.0
2018-Apr-13 07:00N 34°26' E 135°19'1 1.8
2018-Apr-13 06:31N 34°27' E 135°19'0 0.8
2018-Apr-13 05:59N 34°27' E 135°19'0 0.0
2018-Apr-13 05:29N 34°27' E 135°19'0 0.0
2018-Apr-13 04:59N 34°27' E 135°19'0 0.0
2018-Apr-13 04:29N 34°27' E 135°19'0 0.0
2018-Apr-13 03:59N 34°27' E 135°19'0 0.0
2018-Apr-13 03:29N 34°27' E 135°19'0 0.0
2018-Apr-13 02:56N 34°27' E 135°19'0 0.0
2018-Apr-13 02:29N 34°27' E 135°19'0 0.0
2018-Apr-13 01:59N 34°27' E 135°19'0 0.0
2018-Apr-13 01:29N 34°27' E 135°19'0 0.0
2018-Apr-13 00:56N 34°27' E 135°19'0 0.0
2018-Apr-13 00:29N 34°27' E 135°19'0 0.0
2018-Apr-12 23:59N 34°27' E 135°19'0 0.0
2018-Apr-12 23:29N 34°27' E 135°19'0 0.0
2018-Apr-12 22:53N 34°27' E 135°19'0 0.0
2018-Apr-12 22:29N 34°27' E 135°19'0 0.0
2018-Apr-12 21:59N 34°27' E 135°19'0 0.0
2018-Apr-12 21:29N 34°27' E 135°19'0 0.0
2018-Apr-12 20:59N 34°27' E 135°19'0 0.0
2018-Apr-12 20:29N 34°27' E 135°19'0 0.1
2018-Apr-12 19:59N 34°27' E 135°19'0 0.0
2018-Apr-12 19:29N 34°27' E 135°19'0 0.1
2018-Apr-12 18:56N 34°27' E 135°19'0 0.1
2018-Apr-12 18:29N 34°27' E 135°19'0 0.0
2018-Apr-12 17:59N 34°27' E 135°19'0 0.0
2018-Apr-12 17:26N 34°27' E 135°19'0 0.0
2018-Apr-12 16:59N 34°27' E 135°19'0 0.0
2018-Apr-12 16:29N 34°27' E 135°19'0 0.2
2018-Apr-12 16:00N 34°27' E 135°19'2 4.6
2018-Apr-12 15:30N 34°29' E 135°18'612.7
2018-Apr-12 15:00N 34°35' E 135°18'4 8.4
2018-Apr-12 14:30N 34°40' E 135°18'0 0.0
2018-Apr-12 13:59N 34°40' E 135°18'0 0.0
2018-Apr-12 13:29N 34°40' E 135°18'0 0.1
2018-Apr-12 12:59N 34°40' E 135°18'0 0.0
2018-Apr-12 12:29N 34°40' E 135°18'0 0.0
2018-Apr-12 11:59N 34°40' E 135°18'0 0.0
2018-Apr-12 11:29N 34°40' E 135°18'0 0.1
2018-Apr-12 11:00N 34°40' E 135°18'3 6.5
2018-Apr-12 10:30N 34°36' E 135°18'612.3
2018-Apr-12 10:00N 34°31' E 135°13'713.1
2018-Apr-12 09:30N 34°27' E 135°08'713.4
2018-Apr-12 09:00N 34°22' E 135°02'612.9
2018-Apr-12 08:31N 34°16' E 134°59'612.5
2018-Apr-12 08:00N 34°10' E 134°59'612.6
2018-Apr-12 07:30N 34°04' E 134°57'613.0
2018-Apr-12 07:01N 33°57' E 134°56'15110.2
2018-Apr-11 16:14N 33°11' E 132°03'413.0
2018-Apr-11 15:57N 33°15' E 132°01'613.6
2018-Apr-11 15:30N 33°20' E 131°58'713.6
2018-Apr-11 14:59N 33°26' E 131°54'713.9
2018-Apr-11 14:30N 33°32' E 131°50'714.1
2018-Apr-11 13:59N 33°39' E 131°46'713.8
2018-Apr-11 13:28N 33°45' E 131°43'1213.4
2018-Apr-11 12:36N 33°48' E 131°29'213.4
2018-Apr-11 12:26N 33°48' E 131°26'613.2
2018-Apr-11 12:01N 33°50' E 131°20'713.2
2018-Apr-11 11:30N 33°51' E 131°12'713.3
2018-Apr-11 11:00N 33°55' E 131°06'611.9
2018-Apr-11 10:31N 33°58' E 130°60'5 9.6
2018-Apr-11 10:00N 33°55' E 130°56'4 7.6
2018-Apr-11 09:30N 33°57' E 130°52'510.1
2018-Apr-11 09:00N 34°01' E 130°50'713.2
2018-Apr-11 08:31N 34°06' E 130°44'713.4
2018-Apr-11 08:00N 34°11' E 130°39'713.2
2018-Apr-11 07:30N 34°16' E 130°33'713.2
2018-Apr-11 07:00N 34°21' E 130°28'713.1
2018-Apr-11 06:30N 34°26' E 130°23'2613.1
2018-Apr-11 04:30N 34°45' E 130°01'  

Dump ship's entire track history